createdAt,value
2022-10-04T00:00:30.972Z,11.90
2022-10-04T00:03:27.715Z,11.80
2022-10-04T00:06:20.140Z,11.80
2022-10-04T00:09:12.666Z,11.80
2022-10-04T00:11:59.883Z,11.90
2022-10-04T00:14:46.707Z,12.00
2022-10-04T00:17:35.654Z,12.00
2022-10-04T00:20:59.625Z,11.90
2022-10-04T00:23:48.252Z,12.10
2022-10-04T00:27:13.505Z,12.00
2022-10-04T00:30:22.616Z,12.00
2022-10-04T00:33:09.503Z,12.00
2022-10-04T00:35:55.968Z,12.10
2022-10-04T00:38:43.923Z,12.00
2022-10-04T00:41:36.296Z,12.00
2022-10-04T00:44:32.593Z,12.00
2022-10-04T00:47:31.291Z,12.00
2022-10-04T00:50:20.991Z,12.00
2022-10-04T00:53:19.158Z,12.00
2022-10-04T00:56:12.608Z,11.90
2022-10-04T00:59:26.583Z,11.90
2022-10-04T01:02:18.774Z,12.00
2022-10-04T01:05:10.685Z,12.00
2022-10-04T01:08:03.581Z,12.00
2022-10-04T01:10:54.216Z,12.00
2022-10-04T01:13:48.240Z,12.00
2022-10-04T01:16:37.125Z,12.00
2022-10-04T01:19:31.527Z,12.00
2022-10-04T01:22:34.436Z,12.10
2022-10-04T01:25:49.227Z,12.20
2022-10-04T01:28:36.868Z,12.10
2022-10-04T01:31:24.119Z,12.10
2022-10-04T01:34:14.341Z,12.10
2022-10-04T01:37:02.168Z,12.20
2022-10-04T01:39:50.256Z,12.20
2022-10-04T01:42:44.675Z,12.10
2022-10-04T01:45:37.023Z,12.20
2022-10-04T01:48:28.358Z,12.20
2022-10-04T01:51:19.444Z,12.10
2022-10-04T01:54:10.927Z,12.20
2022-10-04T01:57:04.028Z,12.10
2022-10-04T01:59:53.962Z,12.20
2022-10-04T02:02:46.836Z,12.20
2022-10-04T02:05:37.744Z,12.20
2022-10-04T02:08:28.471Z,12.20
2022-10-04T02:11:19.267Z,12.20
2022-10-04T02:14:15.706Z,12.20
2022-10-04T02:17:04.542Z,12.20
2022-10-04T02:19:52.300Z,12.30
2022-10-04T02:22:39.302Z,12.30
2022-10-04T02:25:26.849Z,12.30
2022-10-04T02:28:15.495Z,12.30
2022-10-04T02:31:21.793Z,12.30
2022-10-04T02:34:08.819Z,12.30
2022-10-04T02:36:55.528Z,12.30
2022-10-04T02:39:45.557Z,12.30
2022-10-04T02:42:40.060Z,12.30
2022-10-04T02:45:38.819Z,12.30
2022-10-04T02:48:36.826Z,12.30
2022-10-04T02:51:28.585Z,12.40
2022-10-04T02:54:20.912Z,12.40
2022-10-04T02:57:12.912Z,12.30
2022-10-04T03:00:10.928Z,12.30
2022-10-04T03:03:26.219Z,12.40
2022-10-04T03:06:18.095Z,12.20
2022-10-04T03:09:06.870Z,12.30
2022-10-04T03:11:54.284Z,12.30
2022-10-04T03:14:41.300Z,12.30
2022-10-04T03:17:29.717Z,12.40
2022-10-04T03:20:21.195Z,12.40
2022-10-04T03:23:10.996Z,12.30
2022-10-04T03:26:02.552Z,12.30
2022-10-04T03:28:49.495Z,12.30
2022-10-04T03:31:39.482Z,12.40
2022-10-04T03:34:29.659Z,12.40
2022-10-04T03:37:19.364Z,12.40
2022-10-04T03:40:11.429Z,12.40
2022-10-04T03:43:00.301Z,12.40
2022-10-04T03:45:47.832Z,12.40
2022-10-04T03:48:40.559Z,12.30
2022-10-04T03:51:28.531Z,12.30
2022-10-04T03:54:21.772Z,12.30
2022-10-04T03:57:11.448Z,12.40
2022-10-04T03:59:59.198Z,12.30
2022-10-04T04:02:51.192Z,12.40
2022-10-04T04:05:45.741Z,12.40
2022-10-04T04:08:37.483Z,12.40
2022-10-04T04:11:26.275Z,12.30
2022-10-04T04:14:20.994Z,12.40
2022-10-04T04:17:41.772Z,12.40
2022-10-04T04:20:33.219Z,12.40
2022-10-04T04:23:25.360Z,12.30
2022-10-04T04:26:21.737Z,12.40
2022-10-04T04:29:13.592Z,12.40
2022-10-04T04:32:06.421Z,12.40
2022-10-04T04:34:54.628Z,12.40
2022-10-04T04:37:41.203Z,12.40
2022-10-04T04:40:27.543Z,12.40
2022-10-04T04:43:19.571Z,12.20
2022-10-04T04:46:26.475Z,12.30
2022-10-04T04:49:18.509Z,12.30
2022-10-04T04:52:05.257Z,12.20
2022-10-04T04:54:53.099Z,12.20
2022-10-04T04:57:40.661Z,12.20
2022-10-04T05:00:33.094Z,12.20
2022-10-04T05:03:20.384Z,12.10
2022-10-04T05:06:25.222Z,12.20
2022-10-04T05:09:24.692Z,12.10
2022-10-04T05:12:18.243Z,12.10
2022-10-04T05:15:05.134Z,12.20
2022-10-04T05:17:51.568Z,12.20
2022-10-04T05:20:38.124Z,12.10
2022-10-04T05:23:26.328Z,12.10
2022-10-04T05:26:14.983Z,12.10
2022-10-04T05:29:08.294Z,12.00
2022-10-04T05:32:03.725Z,12.10
2022-10-04T05:34:51.327Z,12.10
2022-10-04T05:37:51.333Z,12.10
2022-10-04T05:40:49.145Z,12.10
2022-10-04T05:43:39.232Z,12.10
2022-10-04T05:46:28.114Z,12.10
2022-10-04T05:49:19.537Z,12.00
2022-10-04T05:52:16.186Z,12.00
2022-10-04T05:55:26.049Z,12.00
2022-10-04T05:58:34.255Z,12.00
2022-10-04T06:01:36.473Z,12.00
2022-10-04T06:04:53.576Z,12.00
2022-10-04T06:07:44.228Z,12.00
2022-10-04T06:10:58.032Z,12.00
2022-10-04T06:14:10.930Z,12.00
2022-10-04T06:17:11.363Z,12.00
2022-10-04T06:20:19.057Z,12.00
2022-10-04T06:23:14.295Z,12.00
2022-10-04T06:26:06.633Z,12.00
2022-10-04T06:29:00.926Z,12.00
2022-10-04T06:32:08.993Z,12.10
2022-10-04T06:35:11.166Z,12.10
2022-10-04T06:38:23.669Z,12.10
2022-10-04T06:41:28.339Z,12.20
2022-10-04T06:44:46.654Z,12.20
2022-10-04T06:47:50.942Z,12.20
2022-10-04T06:50:43.760Z,12.20
2022-10-04T06:53:38.696Z,12.20
2022-10-04T06:56:39.147Z,12.30
2022-10-04T06:59:46.810Z,12.30
2022-10-04T07:02:41.826Z,12.40
2022-10-04T07:05:33.965Z,12.40
2022-10-04T07:08:32.737Z,12.40
2022-10-04T07:11:25.020Z,12.50
2022-10-04T07:14:17.595Z,12.50
2022-10-04T07:17:13.598Z,12.50
2022-10-04T07:20:02.495Z,12.60
2022-10-04T07:22:56.108Z,12.60
2022-10-04T07:25:49.177Z,12.70
2022-10-04T07:28:59.679Z,12.80
2022-10-04T07:31:49.031Z,12.90
2022-10-04T07:34:43.959Z,13.00
2022-10-04T07:37:35.744Z,12.90
2022-10-04T07:40:26.879Z,13.10
2022-10-04T07:43:24.291Z,13.10
2022-10-04T07:46:23.230Z,13.30
2022-10-04T07:49:15.382Z,13.20
2022-10-04T07:52:28.215Z,13.30
2022-10-04T07:55:23.167Z,13.30
2022-10-04T07:58:40.144Z,13.40
2022-10-04T08:01:36.673Z,13.40
2022-10-04T08:04:38.860Z,13.40
2022-10-04T08:07:34.191Z,13.40
2022-10-04T08:10:30.300Z,13.40
2022-10-04T08:13:27.234Z,13.30
2022-10-04T08:16:24.815Z,13.40
2022-10-04T08:19:36.005Z,13.40
2022-10-04T08:22:40.140Z,13.40
2022-10-04T08:25:32.884Z,13.40
2022-10-04T08:28:47.163Z,13.30
2022-10-04T08:31:59.791Z,13.40
2022-10-04T08:35:16.344Z,13.50
2022-10-04T08:38:28.267Z,13.60
2022-10-04T08:41:57.923Z,13.70
2022-10-04T08:45:12.167Z,13.90
2022-10-04T08:48:33.055Z,13.90
2022-10-04T08:52:02.743Z,14.00
2022-10-04T08:55:24.387Z,14.10
2022-10-04T08:58:27.555Z,14.20
2022-10-04T09:01:44.206Z,14.40
2022-10-04T09:04:49.919Z,14.50
2022-10-04T09:08:06.011Z,14.60
2022-10-04T09:11:18.510Z,14.70
2022-10-04T09:14:24.008Z,14.80
2022-10-04T09:17:22.767Z,14.90
2022-10-04T09:20:38.283Z,15.10
2022-10-04T09:24:10.816Z,15.10
2022-10-04T09:27:13.616Z,15.30
2022-10-04T09:30:12.050Z,15.40
2022-10-04T09:33:21.771Z,15.50
2022-10-04T09:36:35.073Z,15.70
2022-10-04T09:39:48.046Z,15.90
2022-10-04T09:43:10.524Z,16.00
2022-10-04T09:46:09.550Z,16.10
2022-10-04T09:49:07.057Z,16.20
2022-10-04T09:52:21.220Z,16.50
2022-10-04T09:55:36.598Z,16.60
2022-10-04T09:58:46.356Z,16.60
2022-10-04T10:01:40.971Z,16.70
2022-10-04T10:04:42.548Z,17.00
2022-10-04T10:07:44.481Z,17.00
2022-10-04T10:10:57.066Z,17.10
2022-10-04T10:14:10.066Z,17.00
2022-10-04T10:17:08.688Z,17.10
2022-10-04T10:20:24.014Z,17.10
2022-10-04T10:23:49.676Z,17.00
2022-10-04T10:26:58.088Z,17.10
2022-10-04T10:30:13.063Z,17.30
2022-10-04T10:33:38.185Z,17.30
2022-10-04T10:36:52.511Z,17.40
2022-10-04T10:40:01.164Z,17.20
2022-10-04T10:43:28.001Z,17.20
2022-10-04T10:46:32.338Z,17.50
2022-10-04T10:49:42.096Z,17.50
2022-10-04T10:53:01.127Z,17.70
2022-10-04T10:56:45.869Z,17.80
2022-10-04T11:00:14.086Z,18.00
2022-10-04T11:03:29.659Z,18.00
2022-10-04T11:06:53.454Z,18.00
2022-10-04T11:10:12.193Z,18.00
2022-10-04T11:13:26.602Z,18.10
2022-10-04T11:16:49.065Z,18.10
2022-10-04T11:20:24.858Z,18.30
2022-10-04T11:23:59.766Z,18.60
2022-10-04T11:27:16.290Z,18.40
2022-10-04T11:30:16.867Z,18.60
2022-10-04T11:33:45.303Z,18.60
2022-10-04T11:36:47.900Z,18.50
2022-10-04T11:39:55.515Z,18.60
2022-10-04T11:43:19.485Z,18.60
2022-10-04T11:46:21.893Z,18.70
2022-10-04T11:49:26.093Z,18.90
2022-10-04T11:53:04.720Z,19.00
2022-10-04T11:56:19.708Z,18.90
2022-10-04T11:59:19.682Z,19.10
2022-10-04T12:02:44.204Z,19.00
2022-10-04T12:06:05.678Z,19.00
2022-10-04T12:09:05.629Z,19.20
2022-10-04T12:12:38.537Z,19.30
2022-10-04T12:15:50.363Z,19.10
2022-10-04T12:19:07.456Z,19.10
2022-10-04T12:22:06.419Z,19.10
2022-10-04T12:25:27.984Z,19.30
2022-10-04T12:28:41.242Z,19.40
2022-10-04T12:31:33.144Z,19.50
2022-10-04T12:34:27.857Z,19.30
2022-10-04T12:37:25.963Z,19.30
2022-10-04T12:40:28.759Z,19.40
2022-10-04T12:43:25.947Z,19.40
2022-10-04T12:46:24.912Z,19.60
2022-10-04T12:49:23.570Z,19.70
2022-10-04T12:52:17.030Z,19.70
2022-10-04T12:55:20.264Z,19.70
2022-10-04T12:58:15.317Z,19.70
2022-10-04T13:01:12.179Z,19.70
2022-10-04T13:04:34.181Z,19.90
2022-10-04T13:07:46.169Z,20.00
2022-10-04T13:10:52.738Z,20.10
2022-10-04T13:14:01.919Z,20.00
2022-10-04T13:20:21.889Z,20.20
2022-10-04T13:23:22.722Z,20.40
2022-10-04T13:26:41.759Z,20.30
2022-10-04T13:29:36.965Z,20.40
2022-10-04T13:32:29.463Z,20.40
2022-10-04T13:35:22.031Z,20.40
2022-10-04T13:38:32.840Z,20.50
2022-10-04T13:41:32.242Z,20.40
2022-10-04T13:44:47.736Z,20.40
2022-10-04T13:47:58.025Z,20.50
2022-10-04T13:51:00.184Z,20.60
2022-10-04T13:54:11.124Z,20.50
2022-10-04T13:57:20.183Z,20.50
2022-10-04T14:00:12.478Z,20.40
2022-10-04T14:03:30.592Z,20.50
2022-10-04T14:07:10.616Z,20.50
2022-10-04T14:10:10.948Z,20.60
2022-10-04T14:13:40.748Z,20.50
2022-10-04T14:16:46.822Z,20.60
2022-10-04T14:20:05.176Z,20.60
2022-10-04T14:23:25.034Z,20.60
2022-10-04T14:26:28.646Z,20.70
2022-10-04T14:29:40.253Z,20.80
2022-10-04T14:33:11.363Z,20.80
2022-10-04T14:36:21.293Z,20.80
2022-10-04T14:39:49.548Z,20.90
2022-10-04T14:43:01.151Z,20.90
2022-10-04T14:46:02.715Z,20.90
2022-10-04T14:49:05.396Z,20.90
2022-10-04T14:52:09.854Z,20.80
2022-10-04T14:55:10.244Z,20.80
2022-10-04T14:58:14.929Z,20.80
2022-10-04T15:01:20.705Z,21.00
2022-10-04T15:04:26.057Z,20.90
2022-10-04T15:07:23.100Z,20.90
2022-10-04T15:10:19.069Z,21.10
2022-10-04T15:13:12.104Z,21.20
2022-10-04T15:16:14.507Z,21.40
2022-10-04T15:19:06.667Z,21.50
2022-10-04T15:22:01.331Z,21.70
2022-10-04T15:24:52.131Z,21.80
2022-10-04T15:27:55.771Z,21.80
2022-10-04T15:30:54.364Z,21.90
2022-10-04T15:33:54.676Z,21.90
2022-10-04T15:36:54.416Z,21.70
2022-10-04T15:40:16.303Z,21.70
2022-10-04T15:43:28.815Z,21.60
2022-10-04T15:46:39.675Z,21.70
2022-10-04T15:49:52.637Z,21.80
2022-10-04T15:52:52.161Z,21.70
2022-10-04T15:56:11.664Z,22.00
2022-10-04T15:59:20.399Z,21.60
2022-10-04T16:02:29.758Z,21.60
2022-10-04T16:05:29.790Z,21.40
2022-10-04T16:08:33.359Z,21.30
2022-10-04T16:11:39.627Z,21.00
2022-10-04T16:14:45.428Z,21.00
2022-10-04T16:17:59.050Z,20.90
2022-10-04T16:21:07.921Z,20.50
2022-10-04T16:24:39.331Z,20.30
2022-10-04T16:27:46.912Z,20.10
2022-10-04T16:30:38.483Z,19.80
2022-10-04T16:33:32.155Z,19.50
2022-10-04T16:36:24.714Z,19.30
2022-10-04T16:39:30.613Z,19.10
2022-10-04T16:42:19.732Z,18.80
2022-10-04T16:45:31.882Z,18.70
2022-10-04T16:48:31.226Z,18.60
2022-10-04T16:51:49.311Z,18.40
2022-10-04T16:55:05.609Z,18.20
2022-10-04T16:58:30.541Z,18.10
2022-10-04T17:01:52.926Z,18.00
2022-10-04T17:05:19.024Z,17.80
2022-10-04T17:08:23.356Z,17.60
2022-10-04T17:11:43.367Z,17.50
2022-10-04T17:14:50.796Z,17.50
2022-10-04T17:17:46.863Z,17.30
2022-10-04T17:20:50.545Z,17.20
2022-10-04T17:23:57.165Z,17.10
2022-10-04T17:26:58.246Z,17.00
2022-10-04T17:29:59.947Z,17.00
2022-10-04T17:33:09.428Z,17.00
2022-10-04T17:36:10.935Z,16.90
2022-10-04T17:39:06.681Z,16.90
2022-10-04T17:42:07.515Z,16.90
2022-10-04T17:45:25.081Z,16.80
2022-10-04T17:48:34.879Z,16.80
2022-10-04T17:51:57.052Z,16.70
2022-10-04T17:55:05.280Z,16.60
2022-10-04T17:57:55.268Z,16.50
2022-10-04T18:00:58.409Z,16.50
2022-10-04T18:03:52.290Z,16.40
2022-10-04T18:06:43.687Z,16.40
2022-10-04T18:09:35.667Z,16.30
2022-10-04T18:12:30.299Z,16.30
2022-10-04T18:15:25.943Z,16.20
2022-10-04T18:18:19.460Z,16.20
2022-10-04T18:21:20.134Z,16.20
2022-10-04T18:24:20.712Z,16.00
2022-10-04T18:27:19.571Z,16.00
2022-10-04T18:30:15.315Z,15.90
2022-10-04T18:33:05.216Z,15.80
2022-10-04T18:35:53.013Z,15.70
2022-10-04T18:38:43.874Z,15.70
2022-10-04T18:41:45.591Z,15.90
2022-10-04T18:44:47.033Z,15.90
2022-10-04T18:47:40.558Z,15.90
2022-10-04T18:50:36.236Z,15.90
2022-10-04T18:53:42.158Z,15.90
2022-10-04T18:56:34.186Z,15.90
2022-10-04T18:59:50.667Z,15.90
2022-10-04T19:02:46.639Z,15.70
2022-10-04T19:05:41.700Z,15.70
2022-10-04T19:08:43.560Z,15.80
2022-10-04T19:11:38.443Z,15.70
2022-10-04T19:14:34.116Z,15.70
2022-10-04T19:17:26.566Z,15.50
2022-10-04T19:20:19.339Z,15.50
2022-10-04T19:23:19.655Z,15.30
2022-10-04T19:29:33.166Z,15.30
2022-10-04T19:32:30.260Z,15.30
2022-10-04T19:35:28.930Z,15.30
2022-10-04T19:38:31.116Z,15.40
2022-10-04T19:41:27.835Z,15.20
2022-10-04T19:44:30.232Z,15.20
2022-10-04T19:47:28.852Z,15.30
2022-10-04T19:50:21.170Z,15.20
2022-10-04T19:53:13.604Z,15.20
2022-10-04T19:56:02.000Z,15.20
2022-10-04T19:58:54.739Z,15.10
2022-10-04T20:01:43.031Z,15.20
2022-10-04T20:04:43.604Z,15.20
2022-10-04T20:07:30.426Z,15.20
2022-10-04T20:10:30.872Z,15.20
2022-10-04T20:13:25.285Z,15.10
2022-10-04T20:16:12.221Z,15.10
2022-10-04T20:19:15.513Z,15.00
2022-10-04T20:22:28.111Z,15.00
2022-10-04T20:25:53.159Z,15.10
2022-10-04T20:28:46.218Z,15.10
2022-10-04T20:31:55.172Z,15.00
2022-10-04T20:34:50.648Z,15.00
2022-10-04T20:38:31.165Z,15.00
2022-10-04T20:42:17.347Z,14.80
2022-10-04T20:45:23.983Z,14.80
2022-10-04T20:48:18.025Z,14.80
2022-10-04T20:51:10.746Z,14.70
2022-10-04T20:53:57.500Z,14.60
2022-10-04T20:56:48.833Z,14.60
2022-10-04T20:59:35.728Z,14.50
2022-10-04T21:02:23.321Z,14.60
2022-10-04T21:05:14.612Z,14.50
2022-10-04T21:08:23.606Z,14.50
2022-10-04T21:11:20.031Z,14.50
2022-10-04T21:14:07.083Z,14.60
2022-10-04T21:16:58.577Z,14.60
2022-10-04T21:19:48.137Z,14.60
2022-10-04T21:22:39.598Z,14.60
2022-10-04T21:25:34.657Z,14.70
2022-10-04T21:28:30.732Z,14.70
2022-10-04T21:31:17.698Z,14.70
2022-10-04T21:34:04.739Z,14.70
2022-10-04T21:36:51.207Z,14.70
2022-10-04T21:39:37.848Z,14.70
2022-10-04T21:42:26.127Z,14.70
2022-10-04T21:45:12.838Z,14.80
2022-10-04T21:47:59.295Z,14.80
2022-10-04T21:50:45.786Z,14.80
2022-10-04T21:53:32.271Z,14.80
2022-10-04T21:56:18.775Z,14.70
2022-10-04T21:59:06.925Z,14.80
2022-10-04T22:01:53.775Z,14.80
2022-10-04T22:04:41.584Z,14.80
2022-10-04T22:07:28.087Z,14.70
2022-10-04T22:10:14.537Z,14.70
2022-10-04T22:13:01.015Z,14.70
2022-10-04T22:15:48.792Z,14.70
2022-10-04T22:18:35.689Z,14.70
2022-10-04T22:21:22.103Z,14.60
2022-10-04T22:24:15.823Z,14.70
2022-10-04T22:27:02.469Z,14.60
2022-10-04T22:29:49.423Z,14.60
2022-10-04T22:32:38.920Z,14.50
2022-10-04T22:35:25.821Z,14.60
2022-10-04T22:38:12.623Z,14.60
2022-10-04T22:41:01.454Z,14.60
2022-10-04T22:43:48.239Z,14.60
2022-10-04T22:46:38.799Z,14.60
2022-10-04T22:49:28.996Z,14.50
2022-10-04T22:52:19.122Z,14.40
2022-10-04T22:55:20.104Z,14.30
2022-10-04T22:58:06.551Z,14.40
2022-10-04T23:00:53.129Z,14.30
2022-10-04T23:03:39.895Z,14.30
2022-10-04T23:06:27.974Z,14.40
2022-10-04T23:09:14.748Z,14.30
2022-10-04T23:12:01.330Z,14.30
2022-10-04T23:14:47.756Z,14.50
2022-10-04T23:17:36.668Z,14.40
2022-10-04T23:20:23.352Z,14.30
2022-10-04T23:23:17.256Z,14.40
2022-10-04T23:26:13.173Z,14.40
2022-10-04T23:29:00.350Z,14.40
2022-10-04T23:31:49.613Z,14.40
2022-10-04T23:34:37.816Z,14.30
2022-10-04T23:37:26.662Z,14.30
2022-10-04T23:40:17.237Z,14.30
2022-10-04T23:43:05.556Z,14.30
2022-10-04T23:45:52.941Z,14.30
2022-10-04T23:48:39.341Z,14.40
2022-10-04T23:51:25.769Z,14.40
2022-10-04T23:54:15.486Z,14.40
2022-10-04T23:57:03.592Z,14.40
2022-10-04T23:59:50.647Z,14.40
